createdAt,value
2019-05-03T00:02:17.578Z,64.50
2019-05-03T00:04:47.819Z,64.30
2019-05-03T00:07:16.460Z,64.50
2019-05-03T00:09:45.157Z,64.50
2019-05-03T00:12:13.851Z,64.50
2019-05-03T00:14:44.134Z,64.70
2019-05-03T00:17:12.819Z,64.80
2019-05-03T00:19:42.232Z,64.90
2019-05-03T00:22:12.391Z,65.30
2019-05-03T00:24:42.655Z,65.20
2019-05-03T00:27:12.570Z,65.50
2019-05-03T00:29:41.755Z,65.90
2019-05-03T00:32:12.417Z,66.00
2019-05-03T00:34:42.699Z,66.10
2019-05-03T00:37:22.154Z,66.40
2019-05-03T00:40:07.699Z,66.40
2019-05-03T00:42:36.300Z,66.80
2019-05-03T00:45:07.486Z,66.70
2019-05-03T00:47:36.242Z,66.80
2019-05-03T00:50:06.206Z,67.80
2019-05-03T00:52:34.887Z,67.10
2019-05-03T00:55:15.713Z,67.20
2019-05-03T00:57:34.376Z,67.10
2019-05-03T01:00:03.570Z,67.10
2019-05-03T01:02:32.178Z,67.10
2019-05-03T01:05:02.826Z,67.70
2019-05-03T01:07:31.948Z,67.70
2019-05-03T01:10:02.606Z,67.70
2019-05-03T01:12:32.405Z,67.40
2019-05-03T01:15:03.020Z,67.50
2019-05-03T01:17:32.514Z,67.60
2019-05-03T01:20:02.802Z,67.60
2019-05-03T01:22:32.185Z,67.80
2019-05-03T01:25:02.928Z,67.70
2019-05-03T01:27:32.692Z,67.70
2019-05-03T01:30:02.903Z,67.70
2019-05-03T01:32:32.908Z,67.80
2019-05-03T01:35:03.142Z,68.00
2019-05-03T01:37:32.166Z,68.00
2019-05-03T01:40:02.226Z,68.10
2019-05-03T01:42:32.205Z,68.10
2019-05-03T01:45:01.845Z,69.20
2019-05-03T01:47:32.607Z,68.60
2019-05-03T01:50:19.598Z,69.00
2019-05-03T01:52:52.658Z,69.20
2019-05-03T01:55:22.996Z,69.30
2019-05-03T01:57:52.461Z,69.80
2019-05-03T02:00:25.620Z,70.10
2019-05-03T02:02:55.986Z,70.30
2019-05-03T02:05:44.777Z,70.60
2019-05-03T02:08:14.479Z,70.90
2019-05-03T02:10:43.759Z,71.00
2019-05-03T02:13:12.561Z,71.00
2019-05-03T02:15:42.176Z,71.20
2019-05-03T02:18:14.932Z,71.00
2019-05-03T02:20:41.880Z,70.80
2019-05-03T02:23:11.875Z,70.70
2019-05-03T02:25:41.933Z,71.10
2019-05-03T02:28:12.499Z,71.00
2019-05-03T02:30:44.013Z,71.10
2019-05-03T02:33:13.409Z,70.50
2019-05-03T02:35:43.052Z,70.50
2019-05-03T02:38:13.205Z,70.00
2019-05-03T02:40:42.879Z,69.70
2019-05-03T02:43:31.679Z,68.90
2019-05-03T02:46:05.841Z,68.50
2019-05-03T02:48:36.565Z,67.80
2019-05-03T02:51:06.592Z,66.60
2019-05-03T02:53:36.026Z,66.10
2019-05-03T02:56:15.170Z,65.80
2019-05-03T02:58:35.851Z,65.30
2019-05-03T03:01:06.815Z,64.70
2019-05-03T03:03:36.541Z,64.80
2019-05-03T03:06:06.861Z,64.70
2019-05-03T03:08:37.754Z,64.30
2019-05-03T03:11:08.196Z,64.10
2019-05-03T03:13:38.626Z,64.40
2019-05-03T03:16:09.715Z,63.80
2019-05-03T03:18:40.476Z,63.80
2019-05-03T03:21:16.348Z,63.60
2019-05-03T03:24:06.410Z,63.40
2019-05-03T03:26:42.732Z,63.60
2019-05-03T03:29:10.854Z,63.50
2019-05-03T03:31:48.805Z,62.60
2019-05-03T03:34:19.706Z,62.30
2019-05-03T03:37:00.807Z,62.40
2019-05-03T03:39:25.865Z,62.50
2019-05-03T03:41:55.811Z,62.80
2019-05-03T03:44:25.586Z,63.20
2019-05-03T03:46:56.113Z,62.70
2019-05-03T03:49:28.015Z,63.40
2019-05-03T03:51:59.688Z,62.80
2019-05-03T03:54:31.294Z,63.30
2019-05-03T03:57:05.023Z,63.70
2019-05-03T03:59:30.257Z,63.30
2019-05-03T04:01:59.445Z,63.00
2019-05-03T04:04:28.719Z,62.80
2019-05-03T04:07:01.227Z,62.80
2019-05-03T04:09:28.001Z,63.20
2019-05-03T04:11:57.029Z,62.80
2019-05-03T04:14:27.465Z,62.40
2019-05-03T04:17:07.072Z,62.40
2019-05-03T04:19:37.406Z,62.10
2019-05-03T04:22:06.200Z,62.20
2019-05-03T04:24:35.331Z,63.00
2019-05-03T04:27:18.019Z,63.20
2019-05-03T04:29:38.366Z,62.20
2019-05-03T04:32:09.008Z,62.90
2019-05-03T04:34:37.815Z,62.60
2019-05-03T04:37:06.444Z,64.00
2019-05-03T04:39:35.888Z,63.70
2019-05-03T04:42:06.690Z,63.60
2019-05-03T04:44:36.155Z,63.50
2019-05-03T04:47:06.916Z,63.00
2019-05-03T04:49:36.240Z,62.60
2019-05-03T04:52:05.943Z,62.40
2019-05-03T04:54:39.206Z,62.00
2019-05-03T04:57:07.796Z,61.40
2019-05-03T04:59:36.437Z,60.60
2019-05-03T05:02:06.070Z,60.10
2019-05-03T05:04:35.723Z,60.30
2019-05-03T05:07:09.709Z,59.30
2019-05-03T05:09:38.018Z,59.40
2019-05-03T05:12:06.640Z,59.10
2019-05-03T05:14:35.528Z,58.70
2019-05-03T05:17:06.147Z,58.50
2019-05-03T05:19:36.652Z,58.10
2019-05-03T05:22:06.960Z,58.10
2019-05-03T05:24:35.657Z,58.50
2019-05-03T05:27:08.633Z,57.90
2019-05-03T05:29:38.910Z,58.10
2019-05-03T05:32:07.593Z,57.90
2019-05-03T05:34:36.232Z,57.80
2019-05-03T05:37:05.409Z,58.00
2019-05-03T05:39:35.586Z,57.60
2019-05-03T05:42:04.585Z,58.50
2019-05-03T05:44:35.079Z,57.70
2019-05-03T05:47:20.471Z,57.80
2019-05-03T05:50:02.419Z,57.20
2019-05-03T05:52:31.036Z,57.70
2019-05-03T05:55:10.202Z,57.50
2019-05-03T05:57:40.471Z,57.10
2019-05-03T06:00:10.737Z,57.00
2019-05-03T06:02:39.419Z,56.50
2019-05-03T06:05:08.114Z,57.10
2019-05-03T06:07:54.594Z,57.10
2019-05-03T06:10:30.885Z,57.10
2019-05-03T06:13:15.091Z,57.00
2019-05-03T06:16:01.863Z,56.90
2019-05-03T06:18:35.418Z,56.90
2019-05-03T06:21:14.884Z,56.90
2019-05-03T06:24:04.453Z,56.10
2019-05-03T06:26:40.553Z,55.60
2019-05-03T06:29:09.239Z,55.50
2019-05-03T06:31:40.468Z,55.40
2019-05-03T06:34:09.107Z,55.20
2019-05-03T06:36:38.454Z,54.30
2019-05-03T06:39:09.981Z,54.20
2019-05-03T06:41:38.614Z,54.20
2019-05-03T06:44:07.279Z,53.20
2019-05-03T06:46:46.519Z,52.40
2019-05-03T06:49:15.553Z,52.60
2019-05-03T06:51:45.628Z,52.20
2019-05-03T06:54:15.732Z,50.60
2019-05-03T06:56:45.178Z,50.40
2019-05-03T06:59:15.917Z,50.20
2019-05-03T07:01:52.488Z,50.60
2019-05-03T07:04:28.680Z,50.90
2019-05-03T07:07:02.234Z,51.50
2019-05-03T07:09:32.611Z,51.40
2019-05-03T07:12:01.274Z,51.90
2019-05-03T07:14:29.881Z,51.60
2019-05-03T07:16:58.549Z,52.10
2019-05-03T07:19:27.215Z,52.70
2019-05-03T07:21:56.008Z,51.90
2019-05-03T07:24:24.946Z,52.80
2019-05-03T07:26:55.127Z,53.10
2019-05-03T07:29:25.516Z,53.20
2019-05-03T07:31:54.941Z,53.30
2019-05-03T07:34:24.773Z,53.80
2019-05-03T07:36:55.425Z,53.90
2019-05-03T07:39:24.565Z,54.00
2019-05-03T07:41:55.075Z,54.00
2019-05-03T07:44:25.461Z,54.30
2019-05-03T07:46:55.492Z,53.70
2019-05-03T07:49:24.989Z,54.00
2019-05-03T07:51:55.338Z,53.60
2019-05-03T07:54:24.923Z,54.00
2019-05-03T07:56:55.405Z,54.50
2019-05-03T07:59:25.080Z,54.70
2019-05-03T08:01:55.463Z,54.60
2019-05-03T08:04:25.582Z,55.20
2019-05-03T08:06:54.926Z,55.10
2019-05-03T08:09:24.587Z,55.10
2019-05-03T08:11:54.738Z,54.10
2019-05-03T08:14:25.226Z,54.60
2019-05-03T08:16:54.822Z,55.50
2019-05-03T08:19:26.822Z,55.50
2019-05-03T08:21:56.431Z,55.50
2019-05-03T08:24:25.320Z,55.70
2019-05-03T08:26:55.795Z,55.90
2019-05-03T08:29:24.959Z,55.80
2019-05-03T08:31:58.430Z,55.50
2019-05-03T08:34:35.005Z,55.80
2019-05-03T08:37:05.536Z,55.60
2019-05-03T08:39:35.599Z,56.30
2019-05-03T08:42:12.446Z,56.00
2019-05-03T08:44:41.076Z,56.10
2019-05-03T08:47:09.764Z,56.30
2019-05-03T08:49:38.470Z,55.80
2019-05-03T08:52:07.066Z,56.00
2019-05-03T08:54:35.702Z,56.10
2019-05-03T08:57:06.283Z,55.70
2019-05-03T08:59:35.745Z,55.30
2019-05-03T09:02:13.985Z,55.30
2019-05-03T09:04:38.049Z,54.30
2019-05-03T09:07:06.212Z,54.50
2019-05-03T09:09:39.542Z,54.60
2019-05-03T09:12:08.296Z,55.30
2019-05-03T09:14:42.665Z,55.40
2019-05-03T09:17:07.384Z,55.70
2019-05-03T09:19:36.066Z,55.10
2019-05-03T09:22:06.215Z,54.90
2019-05-03T09:24:35.263Z,55.40
2019-05-03T09:27:05.150Z,55.20
2019-05-03T09:29:42.499Z,55.10
2019-05-03T09:32:05.199Z,55.10
2019-05-03T09:34:35.085Z,55.20
2019-05-03T09:37:04.838Z,55.00
2019-05-03T09:39:35.519Z,54.00
2019-05-03T09:42:04.710Z,53.20
2019-05-03T09:44:34.988Z,53.40
2019-05-03T09:47:05.653Z,53.50
2019-05-03T09:49:34.727Z,53.60
2019-05-03T09:52:07.921Z,53.60
2019-05-03T09:54:35.797Z,53.80
2019-05-03T09:57:05.817Z,53.90
2019-05-03T09:59:35.057Z,54.20
2019-05-03T10:02:04.897Z,54.00
2019-05-03T10:04:36.397Z,54.30
2019-05-03T10:07:04.213Z,54.50
2019-05-03T10:09:35.169Z,54.20
2019-05-03T10:12:05.469Z,53.70
2019-05-03T10:14:34.399Z,53.10
2019-05-03T10:17:07.229Z,53.50
2019-05-03T10:19:40.111Z,53.50
2019-05-03T10:22:07.040Z,52.80
2019-05-03T10:24:35.679Z,52.30
2019-05-03T10:27:05.583Z,52.80
2019-05-03T10:29:34.487Z,51.70
2019-05-03T10:32:04.763Z,51.90
2019-05-03T10:34:35.302Z,51.30
2019-05-03T10:37:05.191Z,51.90
2019-05-03T10:39:36.088Z,52.30
2019-05-03T10:42:04.855Z,52.90
2019-05-03T10:44:35.705Z,53.30
2019-05-03T10:47:05.485Z,53.30
2019-05-03T10:49:35.190Z,52.80
2019-05-03T10:52:05.866Z,53.10
2019-05-03T10:54:35.811Z,53.50
2019-05-03T10:57:06.467Z,54.00
2019-05-03T10:59:35.661Z,53.70
2019-05-03T11:02:08.925Z,54.10
2019-05-03T11:04:41.993Z,54.30
2019-05-03T11:07:10.653Z,54.60
2019-05-03T11:09:48.617Z,54.90
2019-05-03T11:12:09.612Z,55.00
2019-05-03T11:14:38.244Z,55.90
2019-05-03T11:17:06.925Z,56.10
2019-05-03T11:19:35.711Z,56.60
2019-05-03T11:22:05.457Z,56.10
2019-05-03T11:24:35.022Z,56.20
2019-05-03T11:27:05.395Z,56.60
2019-05-03T11:29:35.537Z,56.70
2019-05-03T11:32:10.707Z,56.80
2019-05-03T11:34:56.212Z,56.70
2019-05-03T11:37:29.470Z,57.00
2019-05-03T11:39:58.147Z,57.60
2019-05-03T11:42:26.867Z,57.70
2019-05-03T11:44:55.474Z,57.90
2019-05-03T11:47:25.606Z,57.30
2019-05-03T11:49:54.769Z,56.80
2019-05-03T11:52:25.697Z,56.70
2019-05-03T11:54:55.254Z,56.40
2019-05-03T11:57:27.912Z,56.00
2019-05-03T11:59:56.663Z,55.70
2019-05-03T12:02:26.923Z,55.80
2019-05-03T12:04:55.654Z,55.70
2019-05-03T12:07:39.875Z,55.50
2019-05-03T12:10:17.662Z,54.90
2019-05-03T12:12:40.913Z,54.90
2019-05-03T12:15:10.145Z,55.00
2019-05-03T12:17:50.932Z,54.80
2019-05-03T12:20:12.522Z,54.60
2019-05-03T12:22:41.922Z,53.90
2019-05-03T12:25:12.011Z,53.20
2019-05-03T12:27:41.141Z,52.50
2019-05-03T12:30:10.018Z,52.00
2019-05-03T12:32:38.744Z,51.00
2019-05-03T12:35:07.510Z,49.40
2019-05-03T12:37:36.118Z,48.00
2019-05-03T12:40:06.399Z,46.50
2019-05-03T12:42:35.611Z,47.60
2019-05-03T12:45:06.522Z,45.50
2019-05-03T12:47:35.228Z,43.70
2019-05-03T12:50:05.966Z,43.20
2019-05-03T12:52:35.460Z,44.10
2019-05-03T12:55:08.295Z,46.40
2019-05-03T12:57:36.918Z,48.20
2019-05-03T13:00:09.731Z,49.40
2019-05-03T13:02:39.976Z,50.10
2019-05-03T13:05:08.688Z,50.60
2019-05-03T13:07:38.930Z,51.00
2019-05-03T13:10:07.967Z,50.30
2019-05-03T13:12:49.839Z,51.10
2019-05-03T13:15:08.048Z,52.20
2019-05-03T13:17:37.268Z,51.90
2019-05-03T13:20:08.703Z,50.70
2019-05-03T13:22:37.485Z,49.90
2019-05-03T13:25:07.842Z,49.00
2019-05-03T13:27:36.552Z,49.20
2019-05-03T13:30:09.536Z,49.30
2019-05-03T13:32:38.263Z,49.50
2019-05-03T13:35:08.229Z,49.80
2019-05-03T13:37:36.942Z,49.70
2019-05-03T13:40:07.018Z,50.30
2019-05-03T13:42:35.692Z,51.80
2019-05-03T13:45:08.779Z,52.80
2019-05-03T13:47:37.388Z,53.30
2019-05-03T13:50:09.051Z,54.40
2019-05-03T13:52:37.642Z,54.70
2019-05-03T13:55:07.086Z,55.20
2019-05-03T13:57:35.695Z,55.50
2019-05-03T14:00:07.236Z,55.30
2019-05-03T14:02:36.089Z,55.30
2019-05-03T14:05:06.591Z,55.60
2019-05-03T14:07:35.493Z,55.30
2019-05-03T14:10:06.358Z,56.30
2019-05-03T14:12:35.212Z,55.80
2019-05-03T14:15:05.827Z,56.20
2019-05-03T14:17:34.463Z,56.10
2019-05-03T14:20:26.093Z,55.90
2019-05-03T14:22:54.747Z,54.20
2019-05-03T14:25:24.715Z,51.50
2019-05-03T14:27:54.948Z,50.40
2019-05-03T14:30:25.323Z,50.80
2019-05-03T14:32:55.737Z,51.80
2019-05-03T14:35:25.059Z,52.10
2019-05-03T14:37:55.128Z,52.50
2019-05-03T14:40:25.148Z,53.40
2019-05-03T14:42:55.494Z,52.40
2019-05-03T14:45:25.594Z,52.30
2019-05-03T14:47:54.724Z,52.30
2019-05-03T14:50:25.490Z,52.10
2019-05-03T14:52:56.856Z,52.70
2019-05-03T14:55:45.127Z,53.40
2019-05-03T14:58:17.298Z,53.60
2019-05-03T15:00:46.987Z,54.30
2019-05-03T15:03:17.275Z,53.60
2019-05-03T15:05:45.940Z,52.90
2019-05-03T15:08:15.015Z,53.00
2019-05-03T15:10:45.598Z,52.70
2019-05-03T15:13:15.896Z,51.90
2019-05-03T15:15:45.137Z,52.50
2019-05-03T15:18:14.910Z,52.40
2019-05-03T15:20:45.325Z,52.40
2019-05-03T15:23:14.762Z,52.50
2019-05-03T15:25:45.226Z,52.70
2019-05-03T15:28:14.040Z,52.60
2019-05-03T15:30:44.514Z,52.30
2019-05-03T15:33:15.018Z,52.20
2019-05-03T15:35:46.429Z,52.10
2019-05-03T15:38:14.476Z,52.50
2019-05-03T15:40:43.499Z,52.60
2019-05-03T15:43:14.890Z,52.50
2019-05-03T15:45:51.063Z,52.80
2019-05-03T15:48:21.331Z,53.00
2019-05-03T15:50:50.077Z,53.00
2019-05-03T15:53:18.669Z,53.50
2019-05-03T15:55:47.378Z,54.10
2019-05-03T15:58:16.094Z,53.90
2019-05-03T16:00:44.940Z,54.20
2019-05-03T16:03:14.544Z,54.40
2019-05-03T16:05:44.732Z,54.60
2019-05-03T16:08:15.290Z,54.40
2019-05-03T16:10:45.737Z,54.80
2019-05-03T16:13:14.519Z,55.30
2019-05-03T16:15:44.543Z,55.70
2019-05-03T16:18:14.860Z,55.50
2019-05-03T16:20:45.064Z,55.40
2019-05-03T16:23:15.398Z,55.50
2019-05-03T16:25:44.846Z,55.30
2019-05-03T16:28:15.327Z,55.30
2019-05-03T16:30:48.423Z,55.60
2019-05-03T16:33:26.997Z,55.30
2019-05-03T16:35:47.517Z,56.00
2019-05-03T16:38:16.188Z,55.30
2019-05-03T16:40:45.230Z,54.40
2019-05-03T16:43:15.998Z,55.10
2019-05-03T16:45:44.593Z,55.50
2019-05-03T16:48:15.026Z,55.80
2019-05-03T16:50:45.210Z,56.00
2019-05-03T16:53:14.805Z,56.30
2019-05-03T16:55:44.377Z,56.30
2019-05-03T16:58:16.475Z,56.30
2019-05-03T17:00:44.796Z,56.40
2019-05-03T17:03:17.242Z,56.30
2019-05-03T17:05:56.372Z,56.60
2019-05-03T17:08:29.373Z,56.90
2019-05-03T17:10:59.649Z,57.30
2019-05-03T17:13:28.340Z,57.20
2019-05-03T17:15:57.128Z,57.10
2019-05-03T17:18:25.808Z,57.00
2019-05-03T17:20:54.843Z,57.40
2019-05-03T17:23:24.603Z,57.40
2019-05-03T17:25:54.741Z,57.50
2019-05-03T17:28:24.777Z,57.60
2019-05-03T17:30:55.216Z,57.60
2019-05-03T17:33:25.297Z,57.80
2019-05-03T17:35:54.440Z,58.00
2019-05-03T17:38:23.835Z,58.10
2019-05-03T17:41:10.319Z,58.10
2019-05-03T17:43:46.450Z,58.30
2019-05-03T17:46:15.090Z,58.70
2019-05-03T17:48:45.235Z,58.70
2019-05-03T17:51:15.630Z,59.10
2019-05-03T17:53:58.045Z,59.00
2019-05-03T17:56:28.363Z,59.10
2019-05-03T17:59:01.566Z,59.20
2019-05-03T18:01:48.332Z,59.30
2019-05-03T18:04:21.617Z,59.70
2019-05-03T18:07:04.597Z,59.70
2019-05-03T18:09:35.030Z,60.10
2019-05-03T18:12:05.346Z,60.70
2019-05-03T18:14:34.467Z,60.60
2019-05-03T18:17:05.493Z,60.70
2019-05-03T18:19:34.318Z,61.00
2019-05-03T18:22:05.066Z,61.60
2019-05-03T18:24:35.200Z,61.90
2019-05-03T18:27:04.577Z,61.90
2019-05-03T18:29:34.643Z,62.10
2019-05-03T18:32:05.348Z,62.20
2019-05-03T18:34:33.928Z,62.20
2019-05-03T18:37:04.639Z,63.10
2019-05-03T18:39:34.720Z,63.30
2019-05-03T18:42:04.991Z,63.50
2019-05-03T18:44:35.312Z,63.40
2019-05-03T18:47:05.614Z,63.20
2019-05-03T18:49:35.362Z,63.20
2019-05-03T18:52:04.453Z,63.20
2019-05-03T18:54:34.960Z,63.00
2019-05-03T18:57:05.101Z,63.10
2019-05-03T18:59:33.946Z,63.10
2019-05-03T19:02:02.668Z,63.20
2019-05-03T19:04:35.820Z,63.80
2019-05-03T19:07:06.659Z,64.00
2019-05-03T19:09:35.375Z,64.30
2019-05-03T19:12:08.760Z,64.20
2019-05-03T19:14:37.350Z,64.10
2019-05-03T19:17:19.684Z,64.50
2019-05-03T19:19:49.956Z,64.80
2019-05-03T19:22:18.631Z,65.00
2019-05-03T19:24:47.316Z,65.30
2019-05-03T19:27:16.020Z,65.00
2019-05-03T19:29:44.926Z,65.40
2019-05-03T19:32:14.972Z,65.30
2019-05-03T19:34:48.378Z,65.20
2019-05-03T19:37:14.502Z,65.40
2019-05-03T19:39:43.327Z,65.30
2019-05-03T19:42:12.034Z,65.30
2019-05-03T19:44:40.703Z,65.30
2019-05-03T19:47:09.457Z,65.30
2019-05-03T19:49:38.067Z,65.40
2019-05-03T19:52:06.785Z,65.50
2019-05-03T19:54:36.568Z,65.60
2019-05-03T19:57:05.518Z,65.70
2019-05-03T19:59:56.320Z,66.00
2019-05-03T20:02:41.127Z,66.10
2019-05-03T20:05:25.215Z,66.20
2019-05-03T20:08:05.155Z,66.40
2019-05-03T20:10:35.098Z,66.60
2019-05-03T20:13:04.662Z,66.90
2019-05-03T20:15:33.464Z,67.20
2019-05-03T20:18:02.162Z,67.30
2019-05-03T20:20:30.785Z,68.20
2019-05-03T20:22:59.504Z,67.70
2019-05-03T20:25:28.174Z,68.00
2019-05-03T20:27:56.888Z,68.10
2019-05-03T20:30:25.582Z,68.40
2019-05-03T20:32:55.548Z,68.80
2019-05-03T20:35:25.138Z,68.90
2019-05-03T20:37:55.370Z,69.20
2019-05-03T20:40:25.655Z,69.40
2019-05-03T20:43:11.100Z,69.60
2019-05-03T20:45:44.610Z,69.90
2019-05-03T20:48:14.991Z,70.10
2019-05-03T20:50:44.703Z,70.10
2019-05-03T20:53:13.589Z,70.00
2019-05-03T20:55:42.349Z,70.00
2019-05-03T20:58:11.472Z,70.40
2019-05-03T21:00:40.219Z,70.30
2019-05-03T21:03:08.875Z,70.40
2019-05-03T21:05:37.645Z,70.40
2019-05-03T21:08:06.358Z,70.40
2019-05-03T21:10:34.965Z,70.90
2019-05-03T21:13:05.374Z,70.90
2019-05-03T21:15:44.582Z,70.90
2019-05-03T21:18:15.198Z,71.10
2019-05-03T21:20:45.668Z,71.10
2019-05-03T21:23:15.910Z,71.30
2019-05-03T21:26:12.319Z,71.50
2019-05-03T21:28:34.631Z,71.40
2019-05-03T21:31:05.396Z,71.50
2019-05-03T21:33:35.482Z,71.50
2019-05-03T21:36:04.732Z,71.60
2019-05-03T21:38:35.559Z,72.40
2019-05-03T21:41:05.209Z,71.80
2019-05-03T21:43:34.830Z,71.90
2019-05-03T21:46:08.881Z,72.00
2019-05-03T21:48:55.794Z,72.20
2019-05-03T21:51:24.624Z,71.50
2019-05-03T21:53:53.329Z,72.50
2019-05-03T21:56:21.990Z,72.50
2019-05-03T21:58:50.662Z,73.00
2019-05-03T22:01:19.454Z,73.00
2019-05-03T22:03:48.232Z,73.20
2019-05-03T22:06:17.183Z,73.20
2019-05-03T22:08:46.042Z,73.30
2019-05-03T22:11:14.965Z,73.50
2019-05-03T22:13:45.481Z,73.50
2019-05-03T22:16:15.955Z,73.40
2019-05-03T22:18:45.470Z,73.80
2019-05-03T22:21:25.067Z,73.70
2019-05-03T22:24:14.761Z,73.80
2019-05-03T22:27:00.635Z,73.80
2019-05-03T22:29:29.315Z,73.70
2019-05-03T22:31:58.099Z,74.20
2019-05-03T22:34:26.852Z,73.90
2019-05-03T22:36:55.622Z,74.40
2019-05-03T22:39:25.017Z,74.70
2019-05-03T22:41:53.965Z,74.70
2019-05-03T22:44:22.650Z,74.90
2019-05-03T22:46:51.368Z,75.10
2019-05-03T22:49:20.042Z,75.30
2019-05-03T22:51:48.849Z,75.30
2019-05-03T22:54:17.585Z,75.80
2019-05-03T22:56:46.285Z,76.30
2019-05-03T22:59:15.111Z,77.40
2019-05-03T23:01:45.547Z,76.50
2019-05-03T23:04:14.655Z,76.40
2019-05-03T23:06:46.771Z,76.20
2019-05-03T23:09:15.878Z,75.90
2019-05-03T23:11:44.944Z,75.70
2019-05-03T23:14:15.069Z,75.40
2019-05-03T23:16:44.918Z,75.10
2019-05-03T23:19:14.975Z,74.90
2019-05-03T23:21:45.565Z,74.80
2019-05-03T23:24:15.384Z,74.80
2019-05-03T23:26:45.209Z,74.80
2019-05-03T23:29:14.075Z,74.70
2019-05-03T23:31:44.707Z,74.30
2019-05-03T23:34:13.110Z,74.00
2019-05-03T23:36:41.840Z,73.60
2019-05-03T23:39:10.586Z,73.40
2019-05-03T23:41:39.277Z,73.50
2019-05-03T23:44:07.960Z,73.40
2019-05-03T23:46:40.934Z,73.60
2019-05-03T23:49:09.578Z,74.00
2019-05-03T23:51:51.812Z,74.10
2019-05-03T23:54:20.487Z,74.40
2019-05-03T23:56:49.290Z,74.90
2019-05-03T23:59:17.899Z,75.20
